createdAt,value
2018-07-05T00:00:56.274Z,58.00
2018-07-05T00:03:35.788Z,57.18
2018-07-05T00:06:15.596Z,58.28
2018-07-05T00:08:55.236Z,59.92
2018-07-05T00:11:34.834Z,58.73
2018-07-05T00:14:14.430Z,60.46
2018-07-05T00:16:54.079Z,59.32
2018-07-05T00:19:33.696Z,61.56
2018-07-05T00:22:13.254Z,59.69
2018-07-05T00:24:52.803Z,60.16
2018-07-05T00:27:32.416Z,61.04
2018-07-05T00:30:12.051Z,60.25
2018-07-05T00:32:51.654Z,59.95
2018-07-05T00:35:31.196Z,61.59
2018-07-05T00:38:10.822Z,62.17
2018-07-05T00:40:50.366Z,61.14
2018-07-05T00:43:29.938Z,61.52
2018-07-05T00:46:09.590Z,62.83
2018-07-05T00:48:49.288Z,62.79
2018-07-05T00:51:28.771Z,62.36
2018-07-05T00:54:08.200Z,61.88
2018-07-05T00:56:47.818Z,62.71
2018-07-05T00:59:27.464Z,63.55
2018-07-05T01:02:07.120Z,63.78
2018-07-05T01:04:47.044Z,63.37
2018-07-05T01:07:26.778Z,63.69
2018-07-05T01:10:06.238Z,63.45
2018-07-05T01:12:45.881Z,63.57
2018-07-05T01:15:25.190Z,64.28
2018-07-05T01:18:04.845Z,64.23
2018-07-05T01:20:44.377Z,64.06
2018-07-05T01:23:23.780Z,64.93
2018-07-05T01:26:03.445Z,64.83
2018-07-05T01:28:42.963Z,65.40
2018-07-05T01:31:22.375Z,65.95
2018-07-05T01:34:02.390Z,65.77
2018-07-05T01:36:41.982Z,64.70
2018-07-05T01:39:21.739Z,65.72
2018-07-05T01:42:01.244Z,65.24
2018-07-05T01:44:40.684Z,65.44
2018-07-05T01:47:20.178Z,65.87
2018-07-05T01:49:59.790Z,65.93
2018-07-05T01:52:40.066Z,66.44
2018-07-05T01:55:19.626Z,66.02
2018-07-05T01:57:59.254Z,66.65
2018-07-05T02:00:39.105Z,65.91
2018-07-05T02:03:18.648Z,67.41
2018-07-05T02:05:58.257Z,68.35
2018-07-05T02:08:37.784Z,69.47
2018-07-05T02:11:17.367Z,69.51
2018-07-05T02:13:56.734Z,69.41
2018-07-05T02:16:36.420Z,68.21
2018-07-05T02:19:16.038Z,67.69
2018-07-05T02:21:55.643Z,69.21
2018-07-05T02:24:35.325Z,69.56
2018-07-05T02:27:15.051Z,68.58
2018-07-05T02:29:54.798Z,68.57
2018-07-05T02:32:34.447Z,70.63
2018-07-05T02:35:13.971Z,68.51
2018-07-05T02:37:58.950Z,68.48
2018-07-05T02:40:38.567Z,68.08
2018-07-05T02:43:18.343Z,67.65
2018-07-05T02:45:57.989Z,67.37
2018-07-05T02:49:11.379Z,68.06
2018-07-05T02:51:50.840Z,67.15
2018-07-05T02:54:30.440Z,68.50
2018-07-05T02:57:10.073Z,67.56
2018-07-05T02:59:49.681Z,68.24
2018-07-05T03:02:29.207Z,68.21
2018-07-05T03:05:08.772Z,67.84
2018-07-05T03:07:48.260Z,68.22
2018-07-05T03:10:27.907Z,68.38
2018-07-05T03:13:07.586Z,67.81
2018-07-05T03:15:47.284Z,68.16
2018-07-05T03:18:27.001Z,69.46
2018-07-05T03:21:06.630Z,69.20
2018-07-05T03:23:46.259Z,68.47
2018-07-05T03:26:25.708Z,67.88
2018-07-05T03:29:05.305Z,69.06
2018-07-05T03:31:44.885Z,70.58
2018-07-05T03:34:24.382Z,70.04
2018-07-05T03:37:03.815Z,69.70
2018-07-05T03:39:43.336Z,70.18
2018-07-05T03:42:22.818Z,68.38
2018-07-05T03:45:02.639Z,70.19
2018-07-05T03:47:42.353Z,70.03
2018-07-05T03:50:21.987Z,68.19
2018-07-05T03:53:01.550Z,64.04
2018-07-05T03:55:41.121Z,62.30
2018-07-05T03:58:20.720Z,61.49
2018-07-05T04:01:00.165Z,59.29
2018-07-05T04:03:39.641Z,58.62
2018-07-05T04:06:19.068Z,57.56
2018-07-05T04:08:58.564Z,56.18
2018-07-05T04:11:38.396Z,57.23
2018-07-05T04:14:18.089Z,57.72
2018-07-05T04:16:57.564Z,56.51
2018-07-05T04:19:41.290Z,57.41
2018-07-05T04:22:21.006Z,58.47
2018-07-05T04:25:00.571Z,63.83
2018-07-05T04:27:40.190Z,64.62
2018-07-05T04:30:19.783Z,67.10
2018-07-05T04:32:59.505Z,66.92
2018-07-05T04:35:39.028Z,67.44
2018-07-05T04:38:18.573Z,67.75
2018-07-05T04:40:58.171Z,68.04
2018-07-05T04:43:37.634Z,66.62
2018-07-05T04:46:17.102Z,66.27
2018-07-05T04:48:56.634Z,66.45
2018-07-05T04:51:36.257Z,69.89
2018-07-05T04:54:15.675Z,69.67
2018-07-05T04:56:55.352Z,67.88
2018-07-05T04:59:34.964Z,68.46
2018-07-05T05:02:14.581Z,67.68
2018-07-05T05:04:54.089Z,68.90
2018-07-05T05:07:33.610Z,69.16
2018-07-05T05:10:13.168Z,69.44
2018-07-05T05:12:52.675Z,69.04
2018-07-05T05:15:32.274Z,68.31
2018-07-05T05:18:11.766Z,68.50
2018-07-05T05:20:51.245Z,69.37
2018-07-05T05:23:30.731Z,70.44
2018-07-05T05:26:10.243Z,70.54
2018-07-05T05:28:49.783Z,70.16
2018-07-05T05:31:29.389Z,70.58
2018-07-05T05:34:08.905Z,69.94
2018-07-05T05:36:48.280Z,69.78
2018-07-05T05:39:28.063Z,69.12
2018-07-05T05:42:07.653Z,70.12
2018-07-05T05:44:47.187Z,70.16
2018-07-05T05:47:26.791Z,69.82
2018-07-05T05:50:06.267Z,69.95
2018-07-05T05:52:45.746Z,69.68
2018-07-05T05:55:25.177Z,68.66
2018-07-05T05:58:04.738Z,68.33
2018-07-05T06:00:44.306Z,68.76
2018-07-05T06:03:23.802Z,69.32
2018-07-05T06:06:03.381Z,68.91
2018-07-05T06:08:43.056Z,68.14
2018-07-05T06:11:22.392Z,69.23
2018-07-05T06:14:01.797Z,70.28
2018-07-05T06:16:41.293Z,69.12
2018-07-05T06:19:20.751Z,67.96
2018-07-05T06:22:00.236Z,68.37
2018-07-05T06:24:39.718Z,68.49
2018-07-05T06:27:19.153Z,68.30
2018-07-05T06:29:58.915Z,69.24
2018-07-05T06:32:38.273Z,68.75
2018-07-05T06:35:17.729Z,68.18
2018-07-05T06:37:57.225Z,67.72
2018-07-05T06:40:36.988Z,68.67
2018-07-05T06:43:16.516Z,67.37
2018-07-05T06:45:55.967Z,67.76
2018-07-05T06:48:35.359Z,68.49
2018-07-05T06:51:14.814Z,67.68
2018-07-05T06:53:54.588Z,67.96
2018-07-05T06:56:34.062Z,68.36
2018-07-05T06:59:13.776Z,66.50
2018-07-05T07:01:53.359Z,66.89
2018-07-05T07:04:32.938Z,67.38
2018-07-05T07:07:12.600Z,68.86
2018-07-05T07:09:52.272Z,68.68
2018-07-05T07:12:31.906Z,67.41
2018-07-05T07:15:11.420Z,66.28
2018-07-05T07:17:50.978Z,66.03
2018-07-05T07:20:30.410Z,67.67
2018-07-05T07:23:09.888Z,67.76
2018-07-05T07:25:49.247Z,66.73
2018-07-05T07:28:28.804Z,66.05
2018-07-05T07:31:08.388Z,66.06
2018-07-05T07:33:48.147Z,66.31
2018-07-05T07:36:27.716Z,66.16
2018-07-05T07:39:07.240Z,67.03
2018-07-05T07:41:51.305Z,66.62
2018-07-05T07:44:19.820Z,65.24
2018-07-05T07:46:47.800Z,63.86
2018-07-05T07:49:15.542Z,64.46
2018-07-05T07:51:42.732Z,64.17
2018-07-05T07:54:10.041Z,64.51
2018-07-05T07:56:37.194Z,64.37
2018-07-05T07:59:04.345Z,63.02
2018-07-05T08:01:31.518Z,62.96
2018-07-05T08:03:58.672Z,61.68
2018-07-05T08:06:25.826Z,61.04
2018-07-05T08:08:52.954Z,60.47
2018-07-05T08:11:20.176Z,60.54
2018-07-05T08:13:48.237Z,59.45
2018-07-05T08:16:16.369Z,58.38
2018-07-05T08:18:43.521Z,59.49
2018-07-05T08:21:10.685Z,59.08
2018-07-05T08:23:37.844Z,57.68
2018-07-05T08:26:05.010Z,58.32
2018-07-05T08:28:32.187Z,58.73
2018-07-05T08:30:59.339Z,58.30
2018-07-05T08:33:26.596Z,58.89
2018-07-05T08:35:53.774Z,59.00
2018-07-05T08:38:21.050Z,58.00
2018-07-05T08:40:49.332Z,57.48
2018-07-05T08:43:16.632Z,57.94
2018-07-05T08:45:43.840Z,56.88
2018-07-05T08:48:11.025Z,56.95
2018-07-05T08:50:38.201Z,56.82
2018-07-05T08:53:05.357Z,57.51
2018-07-05T08:55:32.555Z,57.40
2018-07-05T08:57:59.728Z,56.17
2018-07-05T09:00:26.921Z,56.51
2018-07-05T09:02:54.088Z,55.15
2018-07-05T09:05:21.444Z,56.79
2018-07-05T09:07:48.530Z,55.97
2018-07-05T09:10:15.695Z,56.24
2018-07-05T09:12:42.881Z,56.43
2018-07-05T09:15:10.154Z,55.29
2018-07-05T09:17:37.471Z,55.31
2018-07-05T09:20:04.758Z,54.69
2018-07-05T09:22:32.039Z,54.48
2018-07-05T09:24:59.269Z,54.56
2018-07-05T09:27:26.575Z,53.66
2018-07-05T09:29:53.722Z,52.26
2018-07-05T09:32:21.028Z,51.62
2018-07-05T09:34:48.318Z,52.14
2018-07-05T09:37:15.640Z,52.49
2018-07-05T09:39:42.839Z,50.64
2018-07-05T09:42:10.166Z,50.35
2018-07-05T09:44:37.386Z,50.87
2018-07-05T09:47:04.731Z,50.16
2018-07-05T09:49:31.959Z,50.06
2018-07-05T09:51:59.177Z,50.19
2018-07-05T09:54:26.457Z,51.88
2018-07-05T09:56:53.710Z,52.12
2018-07-05T09:59:21.019Z,53.60
2018-07-05T10:01:48.361Z,51.85
2018-07-05T10:04:15.576Z,51.22
2018-07-05T10:06:42.813Z,50.68
2018-07-05T10:09:10.045Z,50.71
2018-07-05T10:11:37.321Z,50.81
2018-07-05T10:14:04.477Z,50.32
2018-07-05T10:16:31.645Z,50.81
2018-07-05T10:18:59.396Z,50.69
2018-07-05T10:21:26.537Z,50.05
2018-07-05T10:23:53.742Z,48.94
2018-07-05T10:26:20.961Z,48.54
2018-07-05T10:29:00.394Z,48.03
2018-07-05T10:31:40.194Z,48.27
2018-07-05T10:34:07.334Z,48.83
2018-07-05T10:36:34.556Z,49.73
2018-07-05T10:39:01.700Z,49.07
2018-07-05T10:41:41.425Z,48.49
2018-07-05T10:44:20.971Z,48.15
2018-07-05T10:47:00.555Z,47.64
2018-07-05T10:49:40.118Z,47.14
2018-07-05T10:52:19.598Z,46.37
2018-07-05T10:54:59.222Z,46.79
2018-07-05T10:57:38.707Z,46.24
2018-07-05T11:00:18.118Z,46.74
2018-07-05T11:02:57.795Z,46.87
2018-07-05T11:05:37.435Z,46.68
2018-07-05T11:08:16.896Z,46.57
2018-07-05T11:10:56.381Z,47.31
2018-07-05T11:13:35.780Z,47.45
2018-07-05T11:16:15.218Z,48.01
2018-07-05T11:18:54.849Z,47.80
2018-07-05T11:21:34.365Z,46.94
2018-07-05T11:24:13.969Z,46.88
2018-07-05T11:26:53.569Z,47.26
2018-07-05T11:29:32.994Z,47.79
2018-07-05T11:32:12.553Z,47.65
2018-07-05T11:34:52.178Z,48.01
2018-07-05T11:37:31.861Z,48.81
2018-07-05T11:40:11.719Z,47.95
2018-07-05T11:42:51.342Z,49.75
2018-07-05T11:45:30.884Z,53.41
2018-07-05T11:48:10.463Z,53.52
2018-07-05T11:50:50.032Z,53.22
2018-07-05T11:53:29.622Z,53.94
2018-07-05T11:56:09.249Z,53.48
2018-07-05T11:58:48.996Z,54.27
2018-07-05T12:01:28.638Z,53.70
2018-07-05T12:04:08.057Z,55.05
2018-07-05T12:06:47.579Z,53.36
2018-07-05T12:09:27.325Z,53.67
2018-07-05T12:12:07.035Z,54.05
2018-07-05T12:14:46.517Z,54.18
2018-07-05T12:17:26.013Z,55.04
2018-07-05T12:20:05.567Z,55.30
2018-07-05T12:22:45.192Z,56.18
2018-07-05T12:25:24.844Z,55.74
2018-07-05T12:28:04.285Z,55.93
2018-07-05T12:30:43.672Z,55.26
2018-07-05T12:33:23.266Z,54.81
2018-07-05T12:36:02.882Z,55.39
2018-07-05T12:38:42.672Z,54.31
2018-07-05T12:41:22.364Z,54.26
2018-07-05T12:44:01.972Z,54.13
2018-07-05T12:46:41.541Z,54.90
2018-07-05T12:49:21.120Z,55.13
2018-07-05T12:52:00.556Z,55.01
2018-07-05T12:54:40.012Z,54.82
2018-07-05T12:57:19.405Z,55.34
2018-07-05T12:59:58.865Z,55.58
2018-07-05T13:02:38.328Z,54.50
2018-07-05T13:05:17.818Z,54.76
2018-07-05T13:07:57.285Z,54.47
2018-07-05T13:10:36.838Z,54.44
2018-07-05T13:13:16.580Z,54.06
2018-07-05T13:15:56.046Z,55.18
2018-07-05T13:18:35.768Z,55.34
2018-07-05T13:21:15.251Z,56.59
2018-07-05T13:23:54.740Z,56.17
2018-07-05T13:26:34.307Z,55.72
2018-07-05T13:29:13.822Z,55.65
2018-07-05T13:31:53.360Z,55.02
2018-07-05T13:34:32.795Z,54.70
2018-07-05T13:37:12.273Z,55.14
2018-07-05T13:39:52.207Z,54.94
2018-07-05T13:42:31.804Z,55.03
2018-07-05T13:45:11.509Z,54.72
2018-07-05T13:47:51.030Z,56.58
2018-07-05T13:50:30.462Z,56.16
2018-07-05T13:53:10.061Z,55.67
2018-07-05T13:55:49.583Z,54.49
2018-07-05T13:58:29.238Z,54.11
2018-07-05T14:01:08.782Z,54.75
2018-07-05T14:03:48.413Z,53.52
2018-07-05T14:06:27.908Z,54.45
2018-07-05T14:09:07.277Z,53.37
2018-07-05T14:11:46.776Z,53.83
2018-07-05T14:14:26.585Z,53.82
2018-07-05T14:17:06.151Z,53.57
2018-07-05T14:19:45.666Z,53.82
2018-07-05T14:22:25.319Z,53.11
2018-07-05T14:25:05.551Z,52.93
2018-07-05T14:27:44.940Z,52.89
2018-07-05T14:30:24.460Z,53.08
2018-07-05T14:33:04.072Z,52.70
2018-07-05T14:35:43.661Z,52.21
2018-07-05T14:38:23.124Z,53.82
2018-07-05T14:41:03.149Z,53.19
2018-07-05T14:43:42.985Z,53.94
2018-07-05T14:46:22.484Z,53.91
2018-07-05T14:49:02.097Z,53.81
2018-07-05T14:51:41.736Z,53.01
2018-07-05T14:54:21.230Z,53.66
2018-07-05T14:57:00.734Z,52.82
2018-07-05T14:59:40.194Z,51.79
2018-07-05T15:02:19.629Z,51.00
2018-07-05T15:04:59.251Z,51.96
2018-07-05T15:07:38.745Z,52.20
2018-07-05T15:10:18.309Z,51.87
2018-07-05T15:12:57.956Z,52.12
2018-07-05T15:15:37.555Z,51.43
2018-07-05T15:18:17.180Z,52.54
2018-07-05T15:20:56.745Z,52.80
2018-07-05T15:23:36.461Z,53.74
2018-07-05T15:26:16.680Z,54.56
2018-07-05T15:28:56.185Z,54.26
2018-07-05T15:31:36.481Z,53.40
2018-07-05T15:34:16.054Z,53.27
2018-07-05T15:36:55.597Z,54.31
2018-07-05T15:39:35.126Z,54.50
2018-07-05T15:42:14.840Z,53.69
2018-07-05T15:44:54.553Z,53.73
2018-07-05T15:47:34.014Z,54.52
2018-07-05T15:50:13.712Z,53.83
2018-07-05T15:52:53.163Z,54.24
2018-07-05T15:55:32.591Z,54.48
2018-07-05T15:58:12.189Z,54.06
2018-07-05T16:00:51.775Z,52.93
2018-07-05T16:03:31.261Z,53.11
2018-07-05T16:06:10.878Z,53.76
2018-07-05T16:08:50.496Z,52.73
2018-07-05T16:11:29.955Z,53.10
2018-07-05T16:14:09.329Z,51.83
2018-07-05T16:16:48.770Z,51.44
2018-07-05T16:19:28.293Z,51.37
2018-07-05T16:22:07.887Z,51.68
2018-07-05T16:24:47.481Z,52.13
2018-07-05T16:27:27.010Z,50.58
2018-07-05T16:30:06.541Z,50.86
2018-07-05T16:32:46.165Z,50.90
2018-07-05T16:35:25.665Z,50.91
2018-07-05T16:38:04.991Z,50.74
2018-07-05T16:40:44.551Z,50.50
2018-07-05T16:43:24.195Z,50.70
2018-07-05T16:46:03.825Z,49.62
2018-07-05T16:48:43.369Z,50.46
2018-07-05T16:51:23.093Z,50.06
2018-07-05T16:54:02.779Z,49.68
2018-07-05T16:56:42.272Z,50.73
2018-07-05T16:59:21.756Z,51.96
2018-07-05T17:02:01.406Z,50.57
2018-07-05T17:04:40.910Z,50.02
2018-07-05T17:07:20.589Z,51.55
2018-07-05T17:10:00.129Z,50.81
2018-07-05T17:12:39.735Z,51.41
2018-07-05T17:15:19.169Z,52.92
2018-07-05T17:17:58.668Z,54.19
2018-07-05T17:20:38.253Z,52.55
2018-07-05T17:23:17.628Z,52.24
2018-07-05T17:25:57.182Z,52.18
2018-07-05T17:28:36.651Z,52.89
2018-07-05T17:31:16.111Z,52.45
2018-07-05T17:33:55.459Z,53.30
2018-07-05T17:36:34.991Z,52.16
2018-07-05T17:39:14.560Z,53.84
2018-07-05T17:41:54.116Z,53.64
2018-07-05T17:44:33.537Z,52.74
2018-07-05T17:47:12.967Z,52.73
2018-07-05T17:49:52.444Z,53.78
2018-07-05T17:52:31.903Z,54.19
2018-07-05T17:55:11.358Z,55.31
2018-07-05T17:57:51.079Z,54.75
2018-07-05T18:00:30.704Z,55.21
2018-07-05T18:03:10.185Z,53.79
2018-07-05T18:05:49.548Z,54.01
2018-07-05T18:08:29.059Z,53.58
2018-07-05T18:11:08.771Z,54.50
2018-07-05T18:13:48.359Z,53.69
2018-07-05T18:16:27.854Z,54.25
2018-07-05T18:19:07.384Z,55.46
2018-07-05T18:21:46.959Z,56.38
2018-07-05T18:24:26.689Z,56.87
2018-07-05T18:27:06.323Z,57.71
2018-07-05T18:29:45.911Z,58.41
2018-07-05T18:32:25.469Z,56.95
2018-07-05T18:35:05.150Z,57.64
2018-07-05T18:37:44.753Z,56.74
2018-07-05T18:40:24.281Z,58.56
2018-07-05T18:43:03.780Z,58.30
2018-07-05T18:45:43.317Z,58.50
2018-07-05T18:48:22.852Z,58.21
2018-07-05T18:51:02.398Z,58.19
2018-07-05T18:53:41.991Z,59.34
2018-07-05T18:56:21.573Z,58.52
2018-07-05T18:59:01.367Z,58.87
2018-07-05T19:01:41.118Z,57.22
2018-07-05T19:04:20.776Z,57.73
2018-07-05T19:07:00.283Z,58.62
2018-07-05T19:09:39.869Z,57.86
2018-07-05T19:12:19.416Z,57.55
2018-07-05T19:14:58.979Z,57.69
2018-07-05T19:17:38.599Z,57.69
2018-07-05T19:20:17.989Z,57.89
2018-07-05T19:22:57.579Z,58.21
2018-07-05T19:25:37.122Z,58.31
2018-07-05T19:28:16.856Z,58.41
2018-07-05T19:30:56.577Z,57.31
2018-07-05T19:33:36.078Z,57.64
2018-07-05T19:36:15.661Z,58.03
2018-07-05T19:38:55.263Z,57.89
2018-07-05T19:41:34.716Z,58.23
2018-07-05T19:44:13.937Z,57.38
2018-07-05T19:46:53.549Z,58.43
2018-07-05T19:49:33.376Z,57.21
2018-07-05T19:52:13.388Z,57.95
2018-07-05T19:54:53.345Z,58.12
2018-07-05T19:57:32.931Z,58.88
2018-07-05T20:00:12.484Z,59.42
2018-07-05T20:02:52.378Z,59.79
2018-07-05T20:05:32.338Z,59.78
2018-07-05T20:08:12.102Z,58.95
2018-07-05T20:10:55.793Z,58.11
2018-07-05T20:13:35.318Z,58.62
2018-07-05T20:16:14.908Z,59.00
2018-07-05T20:18:54.431Z,59.31
2018-07-05T20:21:33.801Z,61.25
2018-07-05T20:24:13.438Z,60.64
2018-07-05T20:26:53.303Z,60.88
2018-07-05T20:29:33.032Z,62.38
2018-07-05T20:32:12.767Z,62.67
2018-07-05T20:34:52.918Z,63.92
2018-07-05T20:37:32.457Z,63.25
2018-07-05T20:40:12.354Z,63.92
2018-07-05T20:42:52.102Z,64.85
2018-07-05T20:45:32.460Z,62.55
2018-07-05T20:48:12.529Z,64.62
2018-07-05T20:50:52.111Z,62.78
2018-07-05T20:53:31.917Z,64.09
2018-07-05T20:56:11.534Z,63.33
2018-07-05T20:58:51.191Z,63.47
2018-07-05T21:01:31.191Z,62.22
2018-07-05T21:04:10.645Z,61.98
2018-07-05T21:06:50.273Z,60.81
2018-07-05T21:09:29.794Z,62.58
2018-07-05T21:12:09.408Z,62.61
2018-07-05T21:14:49.154Z,62.82
2018-07-05T21:17:28.669Z,61.87
2018-07-05T21:20:08.113Z,62.61
2018-07-05T21:22:47.776Z,62.78
2018-07-05T21:25:27.404Z,63.25
2018-07-05T21:28:06.829Z,62.77
2018-07-05T21:30:46.407Z,62.90
2018-07-05T21:33:26.098Z,64.24
2018-07-05T21:36:05.784Z,63.01
2018-07-05T21:38:45.232Z,63.19
2018-07-05T21:41:24.779Z,64.00
2018-07-05T21:44:04.419Z,63.51
2018-07-05T21:46:44.204Z,64.21
2018-07-05T21:49:23.792Z,64.60
2018-07-05T21:52:03.355Z,63.35
2018-07-05T21:54:43.106Z,62.38
2018-07-05T21:57:22.665Z,63.20
2018-07-05T22:00:02.302Z,63.46
2018-07-05T22:02:41.705Z,63.36
2018-07-05T22:05:21.211Z,63.93
2018-07-05T22:08:01.123Z,65.01
2018-07-05T22:10:40.795Z,64.13
2018-07-05T22:13:20.452Z,64.22
2018-07-05T22:16:00.040Z,64.23
2018-07-05T22:18:44.951Z,65.00
2018-07-05T22:21:24.424Z,63.93
2018-07-05T22:24:09.366Z,67.54
2018-07-05T22:26:48.721Z,70.29
2018-07-05T22:29:33.671Z,69.08
2018-07-05T22:32:13.174Z,68.48
2018-07-05T22:34:52.676Z,68.80
2018-07-05T22:37:32.116Z,68.15
2018-07-05T22:40:11.538Z,67.79
2018-07-05T22:42:51.240Z,69.17
2018-07-05T22:45:30.833Z,69.69
2018-07-05T22:48:10.546Z,68.04
2018-07-05T22:50:50.139Z,68.20
2018-07-05T22:53:29.815Z,68.91
2018-07-05T22:56:09.342Z,69.34
2018-07-05T22:58:48.904Z,69.40
2018-07-05T23:01:28.281Z,68.66
2018-07-05T23:04:07.883Z,68.17
2018-07-05T23:06:47.502Z,68.91
2018-07-05T23:09:27.062Z,68.88
2018-07-05T23:12:06.563Z,68.80
2018-07-05T23:14:46.155Z,69.33
2018-07-05T23:17:25.681Z,69.49
2018-07-05T23:20:05.202Z,68.85
2018-07-05T23:22:44.733Z,68.77
2018-07-05T23:25:24.337Z,69.05
2018-07-05T23:28:03.830Z,68.31
2018-07-05T23:30:43.279Z,68.14
2018-07-05T23:33:22.814Z,68.32
2018-07-05T23:36:02.447Z,69.93
2018-07-05T23:38:41.899Z,68.76
2018-07-05T23:41:21.302Z,69.25
2018-07-05T23:44:00.725Z,69.79
2018-07-05T23:46:40.122Z,69.52
2018-07-05T23:49:19.473Z,70.65
2018-07-05T23:51:59.227Z,69.85
2018-07-05T23:54:38.637Z,71.31
2018-07-05T23:57:18.195Z,69.84
2018-07-05T23:59:57.663Z,70.49
